createdAt,value
2022-11-28T00:04:26.478Z,4.85
2022-11-28T00:09:30.588Z,6.50
2022-11-28T00:14:35.429Z,5.32
2022-11-28T00:19:41.002Z,6.25
2022-11-28T00:24:45.504Z,5.53
2022-11-28T00:29:49.703Z,5.88
2022-11-28T00:34:55.435Z,4.45
2022-11-28T00:39:59.434Z,4.80
2022-11-28T00:45:03.609Z,3.33
2022-11-28T00:50:12.741Z,5.30
2022-11-28T00:55:16.825Z,5.53
2022-11-28T01:00:21.979Z,4.32
2022-11-28T01:05:28.444Z,4.65
2022-11-28T01:10:32.429Z,3.40
2022-11-28T01:15:37.295Z,3.30
2022-11-28T01:20:42.669Z,4.03
2022-11-28T01:25:49.096Z,4.53
2022-11-28T01:30:53.414Z,5.13
2022-11-28T01:36:00.239Z,4.13
2022-11-28T01:41:05.111Z,5.07
2022-11-28T01:46:11.003Z,3.78
2022-11-28T01:51:17.606Z,3.88
2022-11-28T01:56:24.539Z,4.15
2022-11-28T02:01:29.104Z,4.50
2022-11-28T02:06:35.052Z,5.25
2022-11-28T02:11:58.809Z,5.28
2022-11-28T02:17:16.791Z,4.63
2022-11-28T02:22:25.882Z,5.18
2022-11-28T02:28:13.592Z,4.35
2022-11-28T02:33:27.268Z,4.93
2022-11-28T02:38:44.408Z,5.45
2022-11-28T02:43:58.369Z,3.47
2022-11-28T02:49:07.620Z,4.28
2022-11-28T02:54:14.736Z,6.72
2022-11-28T02:59:45.918Z,5.18
2022-11-28T03:04:58.914Z,4.53
2022-11-28T03:10:14.549Z,5.00
2022-11-28T03:15:22.206Z,2.92
2022-11-28T03:20:38.076Z,3.00
2022-11-28T03:25:53.427Z,3.17
2022-11-28T03:31:03.285Z,3.95
2022-11-28T03:36:14.970Z,4.72
2022-11-28T03:41:25.917Z,5.78
2022-11-28T03:46:37.793Z,4.65
2022-11-28T03:51:48.271Z,5.95
2022-11-28T03:56:58.634Z,7.15
2022-11-28T04:02:08.035Z,7.03
2022-11-28T04:07:24.954Z,5.68
2022-11-28T04:12:38.886Z,5.72
2022-11-28T04:17:51.535Z,5.60
2022-11-28T04:23:02.350Z,6.00
2022-11-28T04:28:12.494Z,6.03
2022-11-28T04:33:20.551Z,6.70
2022-11-28T04:38:29.856Z,9.73
2022-11-28T04:43:39.284Z,13.25
2022-11-28T04:48:44.429Z,13.32
2022-11-28T04:53:55.906Z,11.02
2022-11-28T04:59:01.125Z,13.65
2022-11-28T05:04:05.919Z,14.20
2022-11-28T05:09:12.706Z,12.70
2022-11-28T05:14:19.103Z,11.88
2022-11-28T05:19:23.908Z,10.15
2022-11-28T05:24:32.351Z,9.15
2022-11-28T05:29:36.559Z,13.13
2022-11-28T05:34:41.783Z,14.77
2022-11-28T05:39:49.460Z,12.68
2022-11-28T05:44:54.060Z,12.43
2022-11-28T05:49:58.071Z,10.80
2022-11-28T05:55:03.501Z,14.70
2022-11-28T06:00:09.691Z,19.92
2022-11-28T06:05:40.880Z,19.60
2022-11-28T06:10:43.396Z,30.25
2022-11-28T06:15:47.523Z,49.65
2022-11-28T06:20:52.241Z,44.25
2022-11-28T06:25:57.702Z,38.85
2022-11-28T06:31:02.471Z,38.95
2022-11-28T06:36:08.216Z,36.70
2022-11-28T06:41:17.394Z,35.55
2022-11-28T06:46:22.841Z,29.13
2022-11-28T06:51:26.993Z,25.60
2022-11-28T06:56:32.340Z,31.77
2022-11-28T07:01:36.580Z,29.23
2022-11-28T07:06:41.172Z,29.52
2022-11-28T07:11:47.982Z,31.75
2022-11-28T07:16:51.975Z,36.72
2022-11-28T07:21:56.235Z,36.10
2022-11-28T07:27:04.147Z,35.95
2022-11-28T07:32:08.759Z,33.55
2022-11-28T07:37:13.485Z,33.38
2022-11-28T07:42:20.217Z,27.48
2022-11-28T07:47:40.781Z,29.50
2022-11-28T07:52:44.833Z,32.63
2022-11-28T07:57:50.232Z,34.20
2022-11-28T08:02:54.284Z,32.17
2022-11-28T08:07:58.813Z,31.63
2022-11-28T08:13:04.927Z,29.15
2022-11-28T08:18:09.611Z,32.75
2022-11-28T08:23:14.366Z,32.20
2022-11-28T08:28:19.976Z,23.30
2022-11-28T08:33:24.225Z,28.17
2022-11-28T08:38:28.561Z,32.55
2022-11-28T08:43:37.092Z,23.45
2022-11-28T08:48:42.665Z,18.63
2022-11-28T08:53:49.441Z,19.67
2022-11-28T08:58:55.036Z,19.80
2022-11-28T09:03:59.265Z,15.07
2022-11-28T09:09:06.142Z,12.73
2022-11-28T09:14:11.946Z,12.05
2022-11-28T09:19:17.200Z,7.32
2022-11-28T09:24:21.168Z,5.28
2022-11-28T09:29:26.726Z,5.65
2022-11-28T09:34:31.262Z,6.60
2022-11-28T09:39:44.299Z,11.68
2022-11-28T09:45:00.009Z,5.65
2022-11-28T09:55:21.650Z,4.07
2022-11-28T10:00:36.161Z,4.93
2022-11-28T10:05:46.869Z,6.35
2022-11-28T10:11:01.977Z,8.90
2022-11-28T10:16:16.981Z,13.18
2022-11-28T10:21:30.300Z,10.50
2022-11-28T10:26:37.725Z,7.55
2022-11-28T10:31:47.318Z,10.88
2022-11-28T10:36:59.133Z,17.33
2022-11-28T10:42:17.662Z,11.85
2022-11-28T10:47:36.112Z,7.57
2022-11-28T10:52:46.359Z,8.63
2022-11-28T10:58:03.552Z,16.57
2022-11-28T11:03:15.077Z,6.15
2022-11-28T11:08:25.248Z,7.63
2022-11-28T11:13:30.799Z,11.80
2022-11-28T11:18:38.793Z,7.15
2022-11-28T11:23:43.397Z,7.72
2022-11-28T11:28:50.428Z,10.70
2022-11-28T11:34:04.835Z,8.60
2022-11-28T11:39:20.953Z,8.65
2022-11-28T11:44:34.689Z,7.55
2022-11-28T11:49:43.094Z,6.68
2022-11-28T11:55:06.679Z,5.80
2022-11-28T12:00:19.428Z,6.78
2022-11-28T12:05:46.415Z,5.60
2022-11-28T12:11:05.836Z,4.30
2022-11-28T12:16:32.031Z,5.22
2022-11-28T12:21:46.265Z,5.78
2022-11-28T12:26:54.006Z,5.00
2022-11-28T12:32:19.401Z,13.27
2022-11-28T12:38:10.362Z,8.88
2022-11-28T12:43:37.950Z,4.93
2022-11-28T12:49:18.223Z,6.47
2022-11-28T12:54:55.335Z,13.25
2022-11-28T13:00:09.252Z,11.82
2022-11-28T13:05:38.559Z,11.77
2022-11-28T13:10:52.181Z,7.18
2022-11-28T13:16:22.044Z,5.55
2022-11-28T13:21:38.853Z,6.22
2022-11-28T13:27:02.379Z,5.72
2022-11-28T13:32:25.337Z,6.75
2022-11-28T13:43:18.371Z,5.93
2022-11-28T13:49:20.409Z,6.15
2022-11-28T13:54:55.303Z,5.13
2022-11-28T14:00:23.764Z,4.68
2022-11-28T14:05:33.838Z,5.95
2022-11-28T14:11:15.076Z,7.03
2022-11-28T14:16:40.372Z,4.30
2022-11-28T14:21:59.970Z,5.35
2022-11-28T14:32:30.589Z,7.85
2022-11-28T14:38:00.849Z,8.30
2022-11-28T14:43:28.981Z,18.92
2022-11-28T14:48:39.055Z,12.40
2022-11-28T14:53:54.635Z,15.85
2022-11-28T14:59:06.811Z,12.82
2022-11-28T15:04:46.648Z,6.60
2022-11-28T15:10:07.435Z,7.68
2022-11-28T15:15:17.100Z,11.52
2022-11-28T15:20:30.571Z,10.23
2022-11-28T15:25:37.432Z,7.15
2022-11-28T15:30:46.541Z,9.00
2022-11-28T15:35:58.686Z,8.77
2022-11-28T15:41:02.822Z,6.75
2022-11-28T15:46:08.101Z,8.00
2022-11-28T15:51:28.148Z,7.72
2022-11-28T15:56:34.857Z,5.95
2022-11-28T16:01:39.136Z,6.00
2022-11-28T16:06:50.999Z,5.88
2022-11-28T16:11:57.811Z,5.10
2022-11-28T16:17:04.322Z,6.63
2022-11-28T16:22:11.762Z,7.38
2022-11-28T16:27:30.167Z,6.03
2022-11-28T16:32:38.645Z,6.38
2022-11-28T16:37:44.532Z,8.20
2022-11-28T16:42:53.692Z,7.47
2022-11-28T16:48:07.200Z,9.35
2022-11-28T16:53:44.183Z,7.40
2022-11-28T16:58:48.322Z,7.20
2022-11-28T17:03:55.557Z,7.90
2022-11-28T17:09:01.442Z,7.65
2022-11-28T17:14:11.749Z,8.80
2022-11-28T17:19:18.217Z,7.47
2022-11-28T17:24:26.127Z,8.02
2022-11-28T17:29:30.366Z,8.57
2022-11-28T17:34:35.640Z,8.52
2022-11-28T17:40:01.119Z,7.68
2022-11-28T17:45:06.323Z,7.57
2022-11-28T17:50:11.443Z,8.43
2022-11-28T17:55:18.640Z,9.48
2022-11-28T18:00:24.507Z,9.55
2022-11-28T18:05:30.685Z,15.18
2022-11-28T18:10:38.424Z,12.93
2022-11-28T18:15:43.688Z,10.52
2022-11-28T18:20:48.466Z,16.73
2022-11-28T18:25:56.225Z,15.82
2022-11-28T18:31:02.708Z,15.85
2022-11-28T18:36:12.307Z,13.10
2022-11-28T18:41:18.958Z,20.67
2022-11-28T18:46:23.726Z,17.48
2022-11-28T18:51:30.081Z,11.93
2022-11-28T18:56:36.566Z,11.35
2022-11-28T19:01:42.536Z,8.98
2022-11-28T19:06:48.763Z,10.85
2022-11-28T19:11:56.046Z,11.48
2022-11-28T19:17:02.307Z,14.18
2022-11-28T19:22:07.981Z,11.50
2022-11-28T19:27:14.740Z,10.75
2022-11-28T19:32:19.921Z,12.63
2022-11-28T19:37:24.980Z,14.38
2022-11-28T19:42:31.253Z,19.70
2022-11-28T19:47:36.527Z,16.65
2022-11-28T19:52:40.694Z,23.45
2022-11-28T19:57:48.914Z,24.52
2022-11-28T20:02:53.241Z,23.10
2022-11-28T20:07:58.799Z,21.70
2022-11-28T20:13:05.945Z,23.42
2022-11-28T20:18:10.688Z,21.35
2022-11-28T20:23:14.689Z,18.42
2022-11-28T20:28:21.265Z,25.05
2022-11-28T20:33:26.246Z,17.95
2022-11-28T20:38:30.664Z,10.68
2022-11-28T20:43:38.268Z,8.05
2022-11-28T20:48:42.852Z,7.38
2022-11-28T20:53:47.657Z,9.90
2022-11-28T20:58:53.620Z,9.63
2022-11-28T21:04:00.505Z,14.70
2022-11-28T21:09:04.884Z,13.48
2022-11-28T21:14:10.441Z,13.10
2022-11-28T21:19:14.534Z,9.45
2022-11-28T21:24:19.382Z,10.93
2022-11-28T21:29:27.372Z,13.20
2022-11-28T21:34:31.303Z,9.23
2022-11-28T21:39:35.363Z,7.60
2022-11-28T21:44:46.453Z,6.28
2022-11-28T21:49:50.468Z,6.53
2022-11-28T21:54:55.100Z,6.40
2022-11-28T22:00:02.214Z,7.28
2022-11-28T22:05:08.956Z,6.30
2022-11-28T22:10:13.046Z,6.18
2022-11-28T22:15:19.304Z,5.50
2022-11-28T22:20:23.326Z,4.15
2022-11-28T22:25:27.406Z,4.90
2022-11-28T22:30:32.769Z,4.65
2022-11-28T22:35:36.782Z,5.75
2022-11-28T22:40:40.854Z,5.40
2022-11-28T22:45:55.759Z,9.07
2022-11-28T22:50:59.981Z,7.10
2022-11-28T22:56:05.728Z,6.90
2022-11-28T23:01:14.083Z,8.38
2022-11-28T23:06:19.895Z,7.68
2022-11-28T23:11:32.868Z,7.25
2022-11-28T23:16:40.422Z,7.82
2022-11-28T23:21:47.327Z,8.02
2022-11-28T23:26:52.500Z,8.13
2022-11-28T23:31:58.244Z,6.45
2022-11-28T23:37:03.947Z,8.18
2022-11-28T23:42:08.527Z,8.55
2022-11-28T23:47:15.330Z,10.05
2022-11-28T23:52:19.284Z,8.27
2022-11-28T23:57:23.343Z,8.57
